METAR Data
IDs: Format: Raw Decoded Include TAF

Data at: 2250 UTC 25 Oct 2021

KSAT 252151Z 15009KT 10SM FEW036 FEW250 30/22 A2991 RMK AO2 SLP110 T03000222
KSAT 252051Z 15011KT 10SM SCT036 SCT250 31/22 A2991 RMK AO2 SLP111 T03060222 56024
KSAT 251951Z 14005KT 10SM FEW033 31/22 A2993 RMK AO2 SLP116 T03060222
KSAT 251851Z 00000KT 10SM FEW026 29/23 A2996 RMK AO2 SLP126 T02940228
KSAT 251751Z 13005KT 10SM FEW022 28/23 A2999 RMK AO2 SLP135 T02780228 10278 20228 58003
KSAT 251705Z 00000KT 10SM SCT015 26/22 A3000 RMK AO2 T02610222
KSAT 251651Z 00000KT 10SM BKN015 26/22 A3000 RMK AO2 SLP142 T02610222
KSAT 251551Z 16004KT 10SM OVC010 25/22 A3000 RMK AO2 SLP142 T02500222 $
KSAT 251451Z 14005KT 10SM OVC010 24/22 A3000 RMK AO2 SLP140 T02440222 51020
KSAT 251421Z 23003KT 10SM BKN010 24/22 A2999 RMK AO2 T02390222
KSAT 251351Z 26003KT 10SM BKN007 BKN250 24/22 A2998 RMK AO2 SLP133 T02390222
KSAT 251339Z 26003KT 10SM BKN007 BKN250 24/22 A2997 RMK AO2 T02390222
KSAT 251313Z 00000KT 10SM SCT007 23/22 A2997 RMK AO2 T02330217
KSAT 251251Z 26004KT 10SM BKN007 23/22 A2996 RMK AO2 SLP127 T02280217
KSAT 251151Z 23006KT 10SM OVC007 23/22 A2994 RMK AO2 SLP120 T02330222 10239 20217 53001
KSAT 251051Z 22005KT 10SM OVC005 23/23 A2993 RMK AO2 SLP116 T02330228
KSAT 250958Z 21004KT 10SM BKN005 23/23 A2993 RMK AO2 T02330228
KSAT 250951Z 20004KT 10SM SCT007 23/23 A2993 RMK AO2 SLP116 T02330228
KSAT 250851Z 00000KT 10SM SCT007 22/21 A2993 RMK AO2 SLP119 T02170211 52003
KSAT 250838Z 00000KT 10SM SCT007 22/21 A2993 RMK AO2 T02220211
KSAT 250751Z 00000KT 10SM CLR 23/21 A2993 RMK AO2 SLP118 T02280211
KSAT 250651Z 19004KT 10SM CLR 23/21 A2993 RMK AO2 SLP117 T02280211
KSAT 250551Z 19004KT 10SM CLR 24/21 A2993 RMK AO2 SLP116 T02390211 10278 20239 402890217 51017
KSAT 250451Z 17007KT 10SM CLR 24/21 A2992 RMK AO2 SLP114 T02440211
KSAT 250351Z 13003KT 10SM FEW045 24/21 A2990 RMK AO2 SLP107 T02440206
KSAT 250251Z 11004KT 10SM FEW042 24/21 A2987 RMK AO2 SLP099 T02440206 51015
KSAT 250151Z 09003KT 10SM FEW042 24/21 A2986 RMK AO2 SLP095 T02440206
KSAT 250051Z 00000KT 10SM SCT044 26/21 A2984 RMK AO2 SLP088 T02610206
KSAT 242351Z 15003KT 10SM BKN042 28/21 A2983 RMK AO2 SLP084 T02780211 10289 20256 51004
KSAT 242251Z 17004KT 10SM SCT039 28/21 A2983 RMK AO2 SLP083 T02830211
KSAT 242151Z 19004KT 10SM BKN037 28/21 A2982 RMK AO2 SLP081 T02780211
KSAT 242051Z 17008KT 10SM BKN030 29/22 A2982 RMK AO2 SLP080 T02890222 56027
KSAT 241951Z VRB03KT 10SM SCT025 BKN040 27/22 A2983 RMK AO2 SLP084 T02720217
KSAT 241851Z VRB04KT 10SM SCT022 BKN030 BKN040 26/21 A2986 RMK AO2 SLP095 T02560211
KSAT 241751Z VRB03KT 10SM SCT020 OVC028 25/21 A2990 RMK AO2 SLP108 60000 T02500211 10256 20228 50004
KSAT 241651Z VRB05KT 10SM OVC022 25/21 A2990 RMK AO2 SLP109 T02500211
KSAT 241551Z 17007KT 10SM BKN020 25/21 A2989 RMK AO2 SLP106 T02500206
KSAT 241451Z 18006KT 10SM BKN015 BKN021 25/22 A2989 RMK AO2 SLP104 60000 T02500217 53017
KSAT 241351Z 18005KT 10SM FEW009 BKN019 23/21 A2986 RMK AO2 SLP095 T02280211
KSAT 241317Z 18006KT 10SM FEW009 OVC017 23/21 A2985 RMK AO2 T02280211
KSAT 241251Z 19006KT 10SM SCT007 OVC014 23/21 A2985 RMK AO2 RAB12E36 SLP091 P0000 T02280211
KSAT 241237Z 20007KT 10SM SCT007 OVC014 23/22 A2985 RMK AO2 RAB12E36 P0000 T02280217
KSAT 241151Z 16003KT 10SM BKN009 OVC018 23/21 A2984 RMK AO2 SLP085 60000 T02280211 10228 20217 55003
KSAT 241051Z 18007KT 10SM BKN008 OVC016 23/22 A2983 RMK AO2 RAB02E41 SLP085 P0000 T02280217